CheckWX is a tool to help pilots better visualize weather data.  It is not intended as a substitute for an official pre-flight weather briefing.

18:04:37 UTC

CYXU TAF
London Airport
London, Canada
TAF CYXU 241738Z 2418/2518 31010G20KT P6SM FEW025 FEW250 BECMG 2421/2423 30008KT FM250200 VRB03KT P6SM SCT250 FM251100 VRB03KT P6SM SCT090 BKN250 FM251500 13006KT P6SM BKN070 BKN240 RMK NXT FCST BY 250000Z

Apr-24@
18:00 UTC

Apr-24 @ 18:00 UTC

Apr-24@
21:00 UTC

Apr-24 @ 21:00 UTC

TAF CYXU 241738Z 2418/2518 31010G20KT P6SM FEW025 FEW250
Wind
  • 310° at 10 KTS
  • {Gusting to 20 KTS
Cloud Levels
  • Few at 2,500' AGL
  • Few at 25,000' AGL

Apr-24@
21:00 UTC

Apr-24 @ 21:00 UTC

Apr-25@
02:00 UTC

Apr-25 @ 02:00 UTC

BECMG 2421/2423 30008KT

Becoming

Becoming Conditions expected by Wed, Apr 24, 2019 @ 23:00 UTC

Wind
  • 300° at 8 KTS
Cloud Levels
  • Few at 2,500' AGL
  • Few at 25,000' AGL

Apr-25@
02:00 UTC

Apr-25 @ 02:00 UTC

Apr-25@
11:00 UTC

Apr-25 @ 11:00 UTC

FM250200 VRB03KT P6SM SCT250

From

From Standard forecast or significant change

Wind
  • Variable at 3 KTS
Cloud Levels
  • Scattered at 25,000' AGL

Apr-25@
11:00 UTC

Apr-25 @ 11:00 UTC

Apr-25@
15:00 UTC

Apr-25 @ 15:00 UTC

FM251100 VRB03KT P6SM SCT090 BKN250

From

From Standard forecast or significant change

Wind
  • Variable at 3 KTS
Cloud Levels
  • Scattered at 9,000' AGL
  • Broken at 25,000' AGL

Apr-25@
15:00 UTC

Apr-25 @ 15:00 UTC

Apr-25@
18:00 UTC

Apr-25 @ 18:00 UTC

FM251500 13006KT P6SM BKN070 BKN240 RMK NXT FCST BY 250000Z

From

From Standard forecast or significant change

Wind
  • 130° at 6 KTS
Cloud Levels
  • Broken at 7,000' AGL
  • Broken at 24,000' AGL